sensor_id;sensor_type;location;lat;lon;timestamp;pressure;altitude;pressure_sealevel;temperature;humidity
65276;BME280;51875;49.994;14.052;2022-08-25T00:00:54;98687.34;;;16.65;100.00
65276;BME280;51875;49.994;14.052;2022-08-25T00:02:09;98692.56;;;16.67;100.00
65276;BME280;51875;49.994;14.052;2022-08-25T00:03:26;98695.34;;;16.64;100.00
65276;BME280;51875;49.994;14.052;2022-08-25T00:04:42;98689.03;;;16.66;100.00
65276;BME280;51875;49.994;14.052;2022-08-25T00:05:57;98697.06;;;16.65;100.00
65276;BME280;51875;49.994;14.052;2022-08-25T00:07:13;98697.13;;;16.63;100.00
65276;BME280;51875;49.994;14.052;2022-08-25T00:08:28;98698.94;;;16.63;100.00
65276;BME280;51875;49.994;14.052;2022-08-25T00:09:44;98701.41;;;16.66;100.00
65276;BME280;51875;49.994;14.052;2022-08-25T00:11:00;98696.13;;;16.66;100.00
65276;BME280;51875;49.994;14.052;2022-08-25T00:12:16;98701.56;;;16.63;100.00
65276;BME280;51875;49.994;14.052;2022-08-25T00:13:32;98700.72;;;16.62;100.00
65276;BME280;51875;49.994;14.052;2022-08-25T00:14:48;98698.28;;;16.58;100.00
65276;BME280;51875;49.994;14.052;2022-08-25T00:16:03;98695.03;;;16.52;100.00
65276;BME280;51875;49.994;14.052;2022-08-25T00:17:19;98702.00;;;16.54;100.00
65276;BME280;51875;49.994;14.052;2022-08-25T00:18:35;98695.72;;;16.56;100.00
65276;BME280;51875;49.994;14.052;2022-08-25T00:19:51;98703.41;;;16.61;100.00
65276;BME280;51875;49.994;14.052;2022-08-25T00:21:07;98692.06;;;16.59;100.00
65276;BME280;51875;49.994;14.052;2022-08-25T00:22:22;98689.56;;;16.56;100.00
65276;BME280;51875;49.994;14.052;2022-08-25T00:23:38;98698.28;;;16.58;100.00
65276;BME280;51875;49.994;14.052;2022-08-25T00:24:54;98695.06;;;16.51;100.00
65276;BME280;51875;49.994;14.052;2022-08-25T00:26:10;98695.78;;;16.55;100.00
65276;BME280;51875;49.994;14.052;2022-08-25T00:27:26;98697.34;;;16.59;100.00
65276;BME280;51875;49.994;14.052;2022-08-25T00:28:43;98694.94;;;16.54;100.00
65276;BME280;51875;49.994;14.052;2022-08-25T00:29:59;98686.94;;;16.56;100.00
65276;BME280;51875;49.994;14.052;2022-08-25T00:31:17;98689.41;;;16.59;100.00
65276;BME280;51875;49.994;14.052;2022-08-25T00:32:34;98690.06;;;16.64;100.00
65276;BME280;51875;49.994;14.052;2022-08-25T00:33:50;98689.13;;;16.65;100.00
65276;BME280;51875;49.994;14.052;2022-08-25T00:35:06;98692.00;;;16.60;100.00
65276;BME280;51875;49.994;14.052;2022-08-25T00:36:22;98692.16;;;16.57;100.00
65276;BME280;51875;49.994;14.052;2022-08-25T00:37:37;98688.50;;;16.60;100.00
65276;BME280;51875;49.994;14.052;2022-08-25T00:38:53;98687.00;;;16.54;100.00
65276;BME280;51875;49.994;14.052;2022-08-25T00:40:10;98685.38;;;16.51;100.00
65276;BME280;51875;49.994;14.052;2022-08-25T00:41:26;98681.09;;;16.49;100.00
65276;BME280;51875;49.994;14.052;2022-08-25T00:42:41;98686.38;;;16.49;100.00
65276;BME280;51875;49.994;14.052;2022-08-25T00:43:59;98684.59;;;16.49;100.00
65276;BME280;51875;49.994;14.052;2022-08-25T00:45:15;98678.59;;;16.46;100.00
65276;BME280;51875;49.994;14.052;2022-08-25T00:46:39;98673.47;;;16.43;100.00
65276;BME280;51875;49.994;14.052;2022-08-25T00:47:54;98683.16;;;16.42;100.00
65276;BME280;51875;49.994;14.052;2022-08-25T00:49:57;98677.72;;;16.45;100.00
65276;BME280;51875;49.994;14.052;2022-08-25T00:50:53;98677.72;;;16.45;100.00
65276;BME280;51875;49.994;14.052;2022-08-25T00:52:15;98672.31;;;16.48;100.00
65276;BME280;51875;49.994;14.052;2022-08-25T00:53:32;98678.50;;;16.47;100.00
65276;BME280;51875;49.994;14.052;2022-08-25T00:54:54;98672.44;;;16.45;100.00
65276;BME280;51875;49.994;14.052;2022-08-25T00:56:11;98678.81;;;16.41;100.00
65276;BME280;51875;49.994;14.052;2022-08-25T00:57:32;98677.94;;;16.41;100.00
65276;BME280;51875;49.994;14.052;2022-08-25T00:58:48;98680.69;;;16.39;100.00
65276;BME280;51875;49.994;14.052;2022-08-25T01:00:27;98691.84;;;16.27;100.00
65276;BME280;51875;49.994;14.052;2022-08-25T01:01:43;98682.34;;;16.22;100.00
65276;BME280;51875;49.994;14.052;2022-08-25T01:02:59;98689.34;;;16.23;100.00
65276;BME280;51875;49.994;14.052;2022-08-25T01:04:15;98687.63;;;16.22;100.00
65276;BME280;51875;49.994;14.052;2022-08-25T01:05:31;98689.13;;;16.28;100.00
65276;BME280;51875;49.994;14.052;2022-08-25T01:06:47;98689.13;;;16.28;100.00
65276;BME280;51875;49.994;14.052;2022-08-25T01:08:04;98689.63;;;16.17;100.00
65276;BME280;51875;49.994;14.052;2022-08-25T01:09:21;98691.56;;;16.14;100.00
65276;BME280;51875;49.994;14.052;2022-08-25T01:10:40;98688.94;;;16.14;100.00
65276;BME280;51875;49.994;14.052;2022-08-25T01:11:57;98688.84;;;16.15;100.00
65276;BME280;51875;49.994;14.052;2022-08-25T01:13:23;98694.13;;;16.15;100.00
65276;BME280;51875;49.994;14.052;2022-08-25T01:14:41;98692.25;;;16.17;100.00
65276;BME280;51875;49.994;14.052;2022-08-25T01:15:59;98700.34;;;16.14;100.00
65276;BME280;51875;49.994;14.052;2022-08-25T01:17:15;98695.78;;;16.18;100.00
65276;BME280;51875;49.994;14.052;2022-08-25T01:18:53;98696.84;;;16.14;100.00
65276;BME280;51875;49.994;14.052;2022-08-25T01:20:09;98696.75;;;16.15;100.00
65276;BME280;51875;49.994;14.052;2022-08-25T01:21:27;98684.47;;;16.14;100.00
65276;BME280;51875;49.994;14.052;2022-08-25T01:22:43;98691.13;;;16.23;100.00
65276;BME280;51875;49.994;14.052;2022-08-25T01:23:59;98686.03;;;16.18;100.00
65276;BME280;51875;49.994;14.052;2022-08-25T01:26:43;98684.63;;;16.11;100.00
65276;BME280;51875;49.994;14.052;2022-08-25T01:27:59;98688.22;;;16.10;100.00
65276;BME280;51875;49.994;14.052;2022-08-25T01:29:15;98682.47;;;16.19;100.00
65276;BME280;51875;49.994;14.052;2022-08-25T01:30:37;98686.97;;;16.17;100.00
65276;BME280;51875;49.994;14.052;2022-08-25T01:31:58;98678.28;;;16.15;100.00
65276;BME280;51875;49.994;14.052;2022-08-25T01:33:14;98683.56;;;16.15;100.00
65276;BME280;51875;49.994;14.052;2022-08-25T01:34:35;98683.06;;;16.07;100.00
65276;BME280;51875;49.994;14.052;2022-08-25T01:35:51;98689.03;;;15.91;100.00
65276;BME280;51875;49.994;14.052;2022-08-25T01:37:08;98682.16;;;15.87;100.00
65276;BME280;51875;49.994;14.052;2022-08-25T01:38:23;98681.44;;;15.84;100.00
65276;BME280;51875;49.994;14.052;2022-08-25T01:39:40;98683.31;;;15.81;100.00
65276;BME280;51875;49.994;14.052;2022-08-25T01:40:55;98684.09;;;15.84;100.00
65276;BME280;51875;49.994;14.052;2022-08-25T01:43:36;98680.91;;;15.96;100.00
65276;BME280;51875;49.994;14.052;2022-08-25T01:44:52;98688.00;;;15.95;100.00
65276;BME280;51875;49.994;14.052;2022-08-25T01:46:08;98676.66;;;15.93;100.00
65276;BME280;51875;49.994;14.052;2022-08-25T01:47:23;98679.19;;;15.95;100.00
65276;BME280;51875;49.994;14.052;2022-08-25T01:48:39;98673.88;;;15.97;100.00
65276;BME280;51875;49.994;14.052;2022-08-25T01:49:54;98679.06;;;15.98;100.00
65276;BME280;51875;49.994;14.052;2022-08-25T01:51:10;98675.72;;;15.94;100.00
65276;BME280;51875;49.994;14.052;2022-08-25T01:52:33;98672.16;;;15.95;100.00
65276;BME280;51875;49.994;14.052;2022-08-25T01:53:51;98669.78;;;15.89;100.00
65276;BME280;51875;49.994;14.052;2022-08-25T01:55:06;98667.91;;;15.91;100.00
65276;BME280;51875;49.994;14.052;2022-08-25T01:56:22;98675.47;;;15.99;100.00
65276;BME280;51875;49.994;14.052;2022-08-25T01:57:37;98674.66;;;15.99;100.00
65276;BME280;51875;49.994;14.052;2022-08-25T01:58:53;98670.44;;;15.94;100.00
65276;BME280;51875;49.994;14.052;2022-08-25T02:00:10;98669.50;;;15.95;100.00
65276;BME280;51875;49.994;14.052;2022-08-25T02:01:29;98664.75;;;15.83;100.00
65276;BME280;51875;49.994;14.052;2022-08-25T02:02:45;98661.19;;;15.84;100.00
65276;BME280;51875;49.994;14.052;2022-08-25T02:04:00;98663.44;;;15.93;100.00
65276;BME280;51875;49.994;14.052;2022-08-25T02:05:16;98660.94;;;15.90;100.00
65276;BME280;51875;49.994;14.052;2022-08-25T02:06:32;98663.56;;;15.90;100.00
65276;BME280;51875;49.994;14.052;2022-08-25T02:07:49;98660.00;;;15.91;100.00
65276;BME280;51875;49.994;14.052;2022-08-25T02:09:08;98654.81;;;15.90;100.00
65276;BME280;51875;49.994;14.052;2022-08-25T02:10:23;98663.78;;;15.86;100.00
65276;BME280;51875;49.994;14.052;2022-08-25T02:11:41;98660.31;;;15.84;100.00
65276;BME280;51875;49.994;14.052;2022-08-25T02:12:57;98658.81;;;15.78;100.00
65276;BME280;51875;49.994;14.052;2022-08-25T02:14:14;98652.19;;;15.88;100.00
65276;BME280;51875;49.994;14.052;2022-08-25T02:15:31;98655.03;;;15.84;100.00
65276;BME280;51875;49.994;14.052;2022-08-25T02:16:49;98659.38;;;15.85;100.00
65276;BME280;51875;49.994;14.052;2022-08-25T02:18:05;98658.34;;;15.89;100.00
65276;BME280;51875;49.994;14.052;2022-08-25T02:19:22;98658.34;;;15.89;100.00
65276;BME280;51875;49.994;14.052;2022-08-25T02:20:38;98659.34;;;15.86;100.00
65276;BME280;51875;49.994;14.052;2022-08-25T02:21:54;98658.69;;;15.81;100.00
65276;BME280;51875;49.994;14.052;2022-08-25T02:23:10;98660.56;;;15.79;100.00
65276;BME280;51875;49.994;14.052;2022-08-25T02:24:26;98658.69;;;15.81;100.00
65276;BME280;51875;49.994;14.052;2022-08-25T02:25:42;98661.19;;;15.84;100.00
65276;BME280;51875;49.994;14.052;2022-08-25T02:26:58;98656.06;;;15.81;100.00
65276;BME280;51875;49.994;14.052;2022-08-25T02:28:14;98653.53;;;15.78;100.00
65276;BME280;51875;49.994;14.052;2022-08-25T02:29:30;98653.34;;;15.82;100.00
65276;BME280;51875;49.994;14.052;2022-08-25T02:30:45;98657.91;;;15.79;100.00
65276;BME280;51875;49.994;14.052;2022-08-25T02:32:02;98655.53;;;15.73;100.00
65276;BME280;51875;49.994;14.052;2022-08-25T02:33:18;98661.75;;;15.72;100.00
65276;BME280;51875;49.994;14.052;2022-08-25T02:34:34;98667.03;;;15.72;100.00
65276;BME280;51875;49.994;14.052;2022-08-25T02:35:49;98661.97;;;15.67;100.00
65276;BME280;51875;49.994;14.052;2022-08-25T02:37:06;98663.66;;;15.68;100.00
65276;BME280;51875;49.994;14.052;2022-08-25T02:38:23;98663.88;;;15.63;100.00
65276;BME280;51875;49.994;14.052;2022-08-25T02:39:38;98663.75;;;15.66;100.00
65276;BME280;51875;49.994;14.052;2022-08-25T02:40:58;98665.47;;;15.67;100.00
65276;BME280;51875;49.994;14.052;2022-08-25T02:42:14;98661.38;;;15.60;100.00
65276;BME280;51875;49.994;14.052;2022-08-25T02:43:30;98667.59;;;15.59;100.00
65276;BME280;51875;49.994;14.052;2022-08-25T02:44:45;98669.38;;;15.59;100.00
65276;BME280;51875;49.994;14.052;2022-08-25T02:46:02;98659.66;;;15.59;100.00
65276;BME280;51875;49.994;14.052;2022-08-25T02:47:18;98664.09;;;15.59;100.00
65276;BME280;51875;49.994;14.052;2022-08-25T02:48:33;98660.75;;;15.55;100.00
65276;BME280;51875;49.994;14.052;2022-08-25T02:49:50;98659.19;;;15.51;100.00
65276;BME280;51875;49.994;14.052;2022-08-25T02:51:07;98662.59;;;15.53;100.00
65276;BME280;51875;49.994;14.052;2022-08-25T02:52:23;98653.75;;;15.54;100.00
65276;BME280;51875;49.994;14.052;2022-08-25T02:53:40;98657.31;;;15.53;100.00
65276;BME280;51875;49.994;14.052;2022-08-25T02:54:57;98655.59;;;15.52;100.00
65276;BME280;51875;49.994;14.052;2022-08-25T02:56:14;98651.16;;;15.52;100.00
65276;BME280;51875;49.994;14.052;2022-08-25T02:57:30;98649.25;;;15.56;100.00
65276;BME280;51875;49.994;14.052;2022-08-25T02:58:46;98649.97;;;15.60;100.00
65276;BME280;51875;49.994;14.052;2022-08-25T03:00:03;98643.09;;;15.56;100.00
65276;BME280;51875;49.994;14.052;2022-08-25T03:01:19;98647.34;;;15.60;100.00
65276;BME280;51875;49.994;14.052;2022-08-25T03:02:35;98647.91;;;15.66;100.00
65276;BME280;51875;49.994;14.052;2022-08-25T03:03:51;98641.78;;;15.66;100.00
65276;BME280;51875;49.994;14.052;2022-08-25T03:05:08;98651.00;;;15.76;100.00
65276;BME280;51875;49.994;14.052;2022-08-25T03:06:24;98643.78;;;15.80;100.00
65276;BME280;51875;49.994;14.052;2022-08-25T03:07:40;98651.25;;;15.70;100.00
65276;BME280;51875;49.994;14.052;2022-08-25T03:08:55;98649.75;;;15.64;100.00
65276;BME280;51875;49.994;14.052;2022-08-25T03:10:14;98645.91;;;15.72;100.00
65276;BME280;51875;49.994;14.052;2022-08-25T03:11:30;98643.00;;;15.59;100.00
65276;BME280;51875;49.994;14.052;2022-08-25T03:12:46;98639.19;;;15.64;100.00
65276;BME280;51875;49.994;14.052;2022-08-25T03:14:02;98641.41;;;15.54;100.00
65276;BME280;51875;49.994;14.052;2022-08-25T03:15:18;98639.28;;;15.63;100.00
65276;BME280;51875;49.994;14.052;2022-08-25T03:16:33;98647.81;;;15.68;100.00
65276;BME280;51875;49.994;14.052;2022-08-25T03:17:49;98644.25;;;15.69;100.00
65276;BME280;51875;49.994;14.052;2022-08-25T03:19:04;98646.06;;;15.68;100.00
65276;BME280;51875;49.994;14.052;2022-08-25T03:20:21;98649.91;;;15.61;100.00
65276;BME280;51875;49.994;14.052;2022-08-25T03:21:37;98644.34;;;15.67;100.00
65276;BME280;51875;49.994;14.052;2022-08-25T03:22:53;98652.38;;;15.64;100.00
65276;BME280;51875;49.994;14.052;2022-08-25T03:24:09;98641.00;;;15.64;100.00
65276;BME280;51875;49.994;14.052;2022-08-25T03:25:24;98641.97;;;15.61;100.00
65276;BME280;51875;49.994;14.052;2022-08-25T03:26:58;98648.31;;;15.57;100.00
65276;BME280;51875;49.994;14.052;2022-08-25T03:28:14;98646.31;;;15.62;100.00
65276;BME280;51875;49.994;14.052;2022-08-25T03:29:31;98654.25;;;15.62;100.00
65276;BME280;51875;49.994;14.052;2022-08-25T03:30:47;98657.97;;;15.58;100.00
65276;BME280;51875;49.994;14.052;2022-08-25T03:32:03;98651.25;;;15.51;100.00
65276;BME280;51875;49.994;14.052;2022-08-25T03:33:19;98645.84;;;15.54;100.00
65276;BME280;51875;49.994;14.052;2022-08-25T03:34:35;98644.13;;;15.53;100.00
65276;BME280;51875;49.994;14.052;2022-08-25T03:35:50;98647.75;;;15.50;100.00
65276;BME280;51875;49.994;14.052;2022-08-25T03:37:06;98648.72;;;15.48;100.00
65276;BME280;51875;49.994;14.052;2022-08-25T03:38:23;98647.31;;;15.41;100.00
65276;BME280;51875;49.994;14.052;2022-08-25T03:39:39;98644.53;;;15.44;100.00
65276;BME280;51875;49.994;14.052;2022-08-25T03:40:55;98651.72;;;15.40;100.00
65276;BME280;51875;49.994;14.052;2022-08-25T03:42:10;98645.16;;;15.49;100.00
65276;BME280;51875;49.994;14.052;2022-08-25T03:43:26;98647.91;;;15.47;100.00
65276;BME280;51875;49.994;14.052;2022-08-25T03:44:42;98644.31;;;15.48;100.00
65276;BME280;51875;49.994;14.052;2022-08-25T03:45:58;98651.38;;;15.48;100.00
65276;BME280;51875;49.994;14.052;2022-08-25T03:47:13;98655.88;;;15.46;100.00
65276;BME280;51875;49.994;14.052;2022-08-25T03:48:29;98641.75;;;15.47;100.00
65276;BME280;51875;49.994;14.052;2022-08-25T03:49:45;98644.13;;;15.53;100.00
65276;BME280;51875;49.994;14.052;2022-08-25T03:51:01;98645.16;;;15.49;100.00
65276;BME280;51875;49.994;14.052;2022-08-25T03:52:16;98645.09;;;15.50;100.00
65276;BME280;51875;49.994;14.052;2022-08-25T03:53:32;98651.38;;;15.48;100.00
65276;BME280;51875;49.994;14.052;2022-08-25T03:54:48;98651.38;;;15.48;100.00
65276;BME280;51875;49.994;14.052;2022-08-25T03:56:03;98648.94;;;15.43;100.00
65276;BME280;51875;49.994;14.052;2022-08-25T03:57:19;98662.13;;;15.43;100.00
65276;BME280;51875;49.994;14.052;2022-08-25T03:58:34;98648.88;;;15.45;100.00
65276;BME280;51875;49.994;14.052;2022-08-25T03:59:50;98653.63;;;15.36;100.00
65276;BME280;51875;49.994;14.052;2022-08-25T04:01:06;98653.84;;;15.32;100.00
65276;BME280;51875;49.994;14.052;2022-08-25T04:02:22;98648.56;;;15.32;100.00
65276;BME280;51875;49.994;14.052;2022-08-25T04:03:38;98651.28;;;15.30;100.00
65276;BME280;51875;49.994;14.052;2022-08-25T04:04:54;98647.06;;;15.26;100.00
65276;BME280;51875;49.994;14.052;2022-08-25T04:06:09;98653.13;;;15.28;100.00
65276;BME280;51875;49.994;14.052;2022-08-25T04:07:25;98651.59;;;15.22;100.00
65276;BME280;51875;49.994;14.052;2022-08-25T04:08:40;98648.31;;;15.17;100.00
65276;BME280;51875;49.994;14.052;2022-08-25T04:09:56;98645.69;;;15.17;100.00
65276;BME280;51875;49.994;14.052;2022-08-25T04:11:15;98647.41;;;15.18;100.00
65276;BME280;51875;49.994;14.052;2022-08-25T04:12:32;98642.25;;;15.15;100.00
65276;BME280;51875;49.994;14.052;2022-08-25T04:13:48;98647.59;;;15.14;100.00
65276;BME280;51875;49.994;14.052;2022-08-25T04:15:05;98647.50;;;15.15;100.00
65276;BME280;51875;49.994;14.052;2022-08-25T04:16:24;98645.16;;;15.09;100.00
65276;BME280;51875;49.994;14.052;2022-08-25T04:17:40;98642.56;;;15.07;100.00
65276;BME280;51875;49.994;14.052;2022-08-25T04:18:57;98641.41;;;15.15;100.00
65276;BME280;51875;49.994;14.052;2022-08-25T04:20:13;98638.75;;;15.15;100.00
65276;BME280;51875;49.994;14.052;2022-08-25T04:21:29;98643.06;;;15.17;100.00
65276;BME280;51875;49.994;14.052;2022-08-25T04:22:44;98644.19;;;15.11;100.00
65276;BME280;51875;49.994;14.052;2022-08-25T04:24:00;98643.44;;;15.08;100.00
65276;BME280;51875;49.994;14.052;2022-08-25T04:25:16;98637.31;;;15.07;100.00
65276;BME280;51875;49.994;14.052;2022-08-25T04:26:44;98632.84;;;15.09;100.00
65276;BME280;51875;49.994;14.052;2022-08-25T04:28:00;98640.75;;;15.09;100.00
65276;BME280;51875;49.994;14.052;2022-08-25T04:29:19;98636.25;;;15.11;100.00
65276;BME280;51875;49.994;14.052;2022-08-25T04:30:35;98638.81;;;15.13;100.00
65276;BME280;51875;49.994;14.052;2022-08-25T04:31:52;98644.88;;;15.15;100.00
65276;BME280;51875;49.994;14.052;2022-08-25T04:33:07;98645.69;;;15.17;100.00
65276;BME280;51875;49.994;14.052;2022-08-25T04:34:24;98641.19;;;15.19;100.00
65276;BME280;51875;49.994;14.052;2022-08-25T04:35:46;98638.72;;;15.16;100.00
65276;BME280;51875;49.994;14.052;2022-08-25T04:37:03;98646.38;;;15.21;100.00
65276;BME280;51875;49.994;14.052;2022-08-25T04:38:19;98641.34;;;15.16;100.00
65276;BME280;51875;49.994;14.052;2022-08-25T04:39:35;98642.91;;;15.20;100.00
65276;BME280;51875;49.994;14.052;2022-08-25T04:40:58;98640.78;;;15.29;100.00
65276;BME280;51875;49.994;14.052;2022-08-25T04:42:14;98636.81;;;15.39;100.00
65276;BME280;51875;49.994;14.052;2022-08-25T04:43:30;98644.53;;;15.44;100.00
65276;BME280;51875;49.994;14.052;2022-08-25T04:44:46;98642.63;;;15.47;100.00
65276;BME280;51875;49.994;14.052;2022-08-25T04:46:27;98646.56;;;15.37;100.00
65276;BME280;51875;49.994;14.052;2022-08-25T04:47:41;98644.53;;;15.44;100.00
65276;BME280;51875;49.994;14.052;2022-08-25T04:48:58;98640.03;;;15.46;100.00
65276;BME280;51875;49.994;14.052;2022-08-25T04:50:13;98644.91;;;15.55;100.00
65276;BME280;51875;49.994;14.052;2022-08-25T04:51:36;98644.63;;;15.61;100.00
65276;BME280;51875;49.994;14.052;2022-08-25T04:52:53;98645.63;;;15.59;100.00
65276;BME280;51875;49.994;14.052;2022-08-25T04:54:12;98643.84;;;15.59;100.00
65276;BME280;51875;49.994;14.052;2022-08-25T04:55:31;98641.91;;;15.63;100.00
65276;BME280;51875;49.994;14.052;2022-08-25T04:56:47;98649.53;;;15.69;100.00
65276;BME280;51875;49.994;14.052;2022-08-25T04:58:03;98640.94;;;15.65;100.00
65276;BME280;51875;49.994;14.052;2022-08-25T04:59:19;98647.97;;;15.65;100.00
65276;BME280;51875;49.994;14.052;2022-08-25T05:00:35;98649.63;;;15.67;100.00
65276;BME280;51875;49.994;14.052;2022-08-25T05:01:51;98655.84;;;15.66;100.00
65276;BME280;51875;49.994;14.052;2022-08-25T05:03:07;98648.03;;;15.63;100.00
65276;BME280;51875;49.994;14.052;2022-08-25T05:04:23;98661.72;;;15.52;100.00
65276;BME280;51875;49.994;14.052;2022-08-25T05:05:38;98653.31;;;15.63;100.00
65276;BME280;51875;49.994;14.052;2022-08-25T05:06:55;98652.69;;;15.58;100.00
65276;BME280;51875;49.994;14.052;2022-08-25T05:08:10;98657.56;;;15.67;100.00
65276;BME280;51875;49.994;14.052;2022-08-25T05:09:26;98660.38;;;15.63;100.00
65276;BME280;51875;49.994;14.052;2022-08-25T05:10:42;98661.13;;;15.66;100.00
65276;BME280;51875;49.994;14.052;2022-08-25T05:11:59;98664.78;;;15.62;100.00
65276;BME280;51875;49.994;14.052;2022-08-25T05:13:15;98658.53;;;15.65;100.00
65276;BME280;51875;49.994;14.052;2022-08-25T05:14:31;98659.31;;;15.67;100.00
65276;BME280;51875;49.994;14.052;2022-08-25T05:15:54;98661.03;;;15.68;100.00
65276;BME280;51875;49.994;14.052;2022-08-25T05:17:12;98655.59;;;15.71;100.00
65276;BME280;51875;49.994;14.052;2022-08-25T05:18:30;98658.59;;;15.63;100.00
65276;BME280;51875;49.994;14.052;2022-08-25T05:19:46;98658.81;;;15.78;100.00
65276;BME280;51875;49.994;14.052;2022-08-25T05:21:13;98658.34;;;15.70;100.00
65276;BME280;51875;49.994;14.052;2022-08-25T05:22:29;98649.25;;;15.56;100.00
65276;BME280;51875;49.994;14.052;2022-08-25T05:23:45;98648.97;;;15.62;100.00
65276;BME280;51875;49.994;14.052;2022-08-25T05:25:01;98654.69;;;15.72;100.00
65276;BME280;51875;49.994;14.052;2022-08-25T05:26:22;98649.84;;;15.63;100.00
65276;BME280;51875;49.994;14.052;2022-08-25T05:27:41;98650.22;;;15.74;100.00
65276;BME280;51875;49.994;14.052;2022-08-25T05:28:59;98652.13;;;15.71;100.00
65276;BME280;51875;49.994;14.052;2022-08-25T05:30:15;98654.63;;;15.74;100.00
65276;BME280;51875;49.994;14.052;2022-08-25T05:31:31;98646.53;;;15.77;100.00
65276;BME280;51875;49.994;14.052;2022-08-25T05:32:46;98648.50;;;15.73;100.00
65276;BME280;51875;49.994;14.052;2022-08-25T05:34:06;98645.84;;;15.73;100.00
65276;BME280;51875;49.994;14.052;2022-08-25T05:35:22;98649.75;;;15.84;100.00
65276;BME280;51875;49.994;14.052;2022-08-25T05:36:37;98647.13;;;15.84;100.00
65276;BME280;51875;49.994;14.052;2022-08-25T05:37:57;98649.06;;;15.80;100.00
65276;BME280;51875;49.994;14.052;2022-08-25T05:39:13;98644.38;;;15.87;100.00
65276;BME280;51875;49.994;14.052;2022-08-25T05:40:29;98644.28;;;15.88;100.00
65276;BME280;51875;49.994;14.052;2022-08-25T05:41:45;98644.28;;;15.88;100.00
65276;BME280;51875;49.994;14.052;2022-08-25T05:43:01;98655.22;;;16.00;100.00
65276;BME280;51875;49.994;14.052;2022-08-25T05:44:16;98650.66;;;16.03;100.00
65276;BME280;51875;49.994;14.052;2022-08-25T05:45:33;98645.81;;;15.94;100.00
65276;BME280;51875;49.994;14.052;2022-08-25T05:46:48;98649.00;;;16.01;100.00
65276;BME280;51875;49.994;14.052;2022-08-25T05:48:05;98647.09;;;16.04;100.00
65276;BME280;51875;49.994;14.052;2022-08-25T05:49:21;98643.16;;;16.13;100.00
65276;BME280;51875;49.994;14.052;2022-08-25T05:50:36;98642.22;;;16.14;100.00
65276;BME280;51875;49.994;14.052;2022-08-25T05:51:52;98644.81;;;16.16;100.00
65276;BME280;51875;49.994;14.052;2022-08-25T05:53:08;98645.94;;;16.10;100.00
65276;BME280;51875;49.994;14.052;2022-08-25T05:54:24;98642.94;;;16.18;100.00
65276;BME280;51875;49.994;14.052;2022-08-25T05:55:43;98636.00;;;16.15;100.00
65276;BME280;51875;49.994;14.052;2022-08-25T05:56:59;98641.44;;;16.12;100.00
65276;BME280;51875;49.994;14.052;2022-08-25T05:58:15;98642.28;;;16.13;100.00
65276;BME280;51875;49.994;14.052;2022-08-25T05:59:31;98642.28;;;16.13;100.00
65276;BME280;51875;49.994;14.052;2022-08-25T06:00:47;98636.09;;;16.14;100.00
65276;BME280;51875;49.994;14.052;2022-08-25T06:02:03;98635.94;;;16.17;100.00
65276;BME280;51875;49.994;14.052;2022-08-25T06:03:37;98642.22;;;16.14;100.00
65276;BME280;51875;49.994;14.052;2022-08-25T06:04:53;98648.94;;;16.21;100.00
65276;BME280;51875;49.994;14.052;2022-08-25T06:06:08;98647.91;;;16.24;100.00
65276;BME280;51875;49.994;14.052;2022-08-25T06:07:24;98646.63;;;16.33;100.00
65276;BME280;51875;49.994;14.052;2022-08-25T06:08:41;98647.47;;;16.33;100.00
65276;BME280;51875;49.994;14.052;2022-08-25T06:09:56;98651.47;;;16.42;100.00
65276;BME280;51875;49.994;14.052;2022-08-25T06:11:12;98638.56;;;16.36;100.00
65276;BME280;51875;49.994;14.052;2022-08-25T06:12:28;98636.91;;;16.33;100.00
65276;BME280;51875;49.994;14.052;2022-08-25T06:13:46;98645.41;;;16.40;100.00
65276;BME280;51875;49.994;14.052;2022-08-25T06:15:03;98645.19;;;16.45;100.00
65276;BME280;51875;49.994;14.052;2022-08-25T06:16:19;98641.88;;;16.40;100.00
65276;BME280;51875;49.994;14.052;2022-08-25T06:17:35;98638.25;;;16.42;100.00
65276;BME280;51875;49.994;14.052;2022-08-25T06:18:55;98646.72;;;16.49;100.00
65276;BME280;51875;49.994;14.052;2022-08-25T06:20:16;98642.78;;;16.58;100.00
65276;BME280;51875;49.994;14.052;2022-08-25T06:21:32;98643.50;;;16.61;100.00
65276;BME280;51875;49.994;14.052;2022-08-25T06:22:49;98643.72;;;16.57;100.00
65276;BME280;51875;49.994;14.052;2022-08-25T06:24:06;98645.25;;;16.61;100.00
65276;BME280;51875;49.994;14.052;2022-08-25T06:25:23;98640.06;;;16.59;100.00
65276;BME280;51875;49.994;14.052;2022-08-25T06:26:39;98648.72;;;16.63;100.00
65276;BME280;51875;49.994;14.052;2022-08-25T06:27:55;98643.50;;;16.61;100.00
65276;BME280;51875;49.994;14.052;2022-08-25T06:29:11;98652.69;;;16.72;100.00
65276;BME280;51875;49.994;14.052;2022-08-25T06:30:28;98650.97;;;16.71;100.00
65276;BME280;51875;49.994;14.052;2022-08-25T06:31:44;98648.88;;;16.77;100.00
65276;BME280;51875;49.994;14.052;2022-08-25T06:33:00;98650.59;;;16.78;100.00
65276;BME280;51875;49.994;14.052;2022-08-25T06:34:16;98653.91;;;16.82;100.00
65276;BME280;51875;49.994;14.052;2022-08-25T06:35:32;98650.09;;;16.88;100.00
65276;BME280;51875;49.994;14.052;2022-08-25T06:36:48;98655.16;;;16.92;100.00
65276;BME280;51875;49.994;14.052;2022-08-25T06:38:04;98654.81;;;17.00;100.00
65276;BME280;51875;49.994;14.052;2022-08-25T06:39:21;98652.63;;;17.08;100.00
65276;BME280;51875;49.994;14.052;2022-08-25T06:40:37;98655.88;;;17.14;100.00